Time;durP1;ratioP1;P1;durP2;ratioP2;P2;SDS_P1;SDS_P2;PMS_P1;PMS_P2;Temp;Humidity;BMP_temperature;BMP_pressure;BME280_temperature;BME280_humidity;BME280_pressure;Samples;Min_cycle;Max_cycle;Signal;HPM_P1;HPM_P2
2021/11/22 00:00:29;;;;;;;4.90;4.00;;;1.40;95.40;;;;;;5072866;28;20373;-79
2021/11/22 00:02:57;;;;;;;9.80;3.75;;;1.40;95.40;;;;;;5072613;28;20115;-78
2021/11/22 00:05:23;;;;;;;4.95;4.35;;;1.40;95.40;;;;;;5071158;28;20020;-79
2021/11/22 00:07:49;;;;;;;7.20;4.80;;;1.40;95.30;;;;;;5072435;28;20052;-80
2021/11/22 00:10:15;;;;;;;6.38;3.40;;;1.40;95.30;;;;;;5060492;28;20138;-79
2021/11/22 00:12:42;;;;;;;5.70;3.95;;;1.40;95.00;;;;;;5072929;28;20074;-79
2021/11/22 00:15:10;;;;;;;3.72;3.15;;;1.40;94.80;;;;;;5072735;28;20020;-79
2021/11/22 00:17:36;;;;;;;5.53;4.25;;;1.40;94.60;;;;;;5072337;28;20431;-79
2021/11/22 00:20:13;;;;;;;4.65;3.67;;;1.50;94.60;;;;;;5072247;28;20021;-79
2021/11/22 00:22:40;;;;;;;5.22;3.78;;;1.50;94.40;;;;;;5072515;28;20017;-79
2021/11/22 00:25:06;;;;;;;4.50;3.72;;;1.50;94.30;;;;;;5072335;28;20039;-79
2021/11/22 00:27:32;;;;;;;6.70;4.23;;;1.50;94.50;;;;;;5072212;28;20029;-78
2021/11/22 00:29:58;;;;;;;3.88;2.92;;;1.50;94.60;;;;;;5071162;28;20032;-77
2021/11/22 00:32:24;;;;;;;8.32;4.13;;;1.50;94.50;;;;;;5072387;28;20020;-78
2021/11/22 00:34:55;;;;;;;4.82;3.40;;;1.60;94.60;;;;;;5072508;28;20095;-79
2021/11/22 00:37:24;;;;;;;5.05;3.65;;;1.60;94.70;;;;;;5068094;28;20040;-78
2021/11/22 00:39:50;;;;;;;7.03;4.15;;;1.60;94.60;;;;;;5066407;28;20025;-76
2021/11/22 00:42:16;;;;;;;4.43;3.33;;;1.60;94.60;;;;;;5071858;28;20111;-76
2021/11/22 00:44:42;;;;;;;5.13;3.50;;;1.60;94.60;;;;;;5072163;28;20044;-76
2021/11/22 00:47:09;;;;;;;5.53;4.03;;;1.60;94.60;;;;;;5073080;28;20020;-78
2021/11/22 00:49:37;;;;;;;8.20;4.75;;;1.60;94.70;;;;;;5072335;28;20050;-78
2021/11/22 00:52:04;;;;;;;;;;;1.60;94.80;;;;;;5072665;28;20109;-77
2021/11/22 00:54:30;;;;;;;4.70;3.17;;;1.60;94.80;;;;;;5072339;28;19908;-77
2021/11/22 00:56:55;;;;;;;7.70;3.20;;;1.60;94.50;;;;;;5072213;28;20024;-76
2021/11/22 00:59:21;;;;;;;4.07;2.90;;;1.50;94.40;;;;;;5072246;28;20031;-76
2021/11/22 01:01:50;;;;;;;4.22;2.88;;;1.50;94.40;;;;;;5072306;28;20028;-77
2021/11/22 01:04:19;;;;;;;4.55;3.08;;;1.50;94.10;;;;;;5072522;28;20048;-77
2021/11/22 01:06:46;;;;;;;4.95;3.20;;;1.50;94.10;;;;;;5071449;28;20020;-76
2021/11/22 01:09:12;;;;;;;4.93;2.85;;;1.50;94.20;;;;;;5073557;28;20056;-78
2021/11/22 01:11:38;;;;;;;3.47;2.72;;;1.50;94.30;;;;;;5075937;28;20040;-76
2021/11/22 01:14:04;;;;;;;4.18;2.38;;;1.50;94.10;;;;;;5075650;28;20029;-77
2021/11/22 01:16:30;;;;;;;4.57;2.92;;;1.50;93.80;;;;;;5074474;28;20025;-77
2021/11/22 01:18:58;;;;;;;4.43;3.10;;;1.50;93.90;;;;;;5075543;28;20031;-78
2021/11/22 01:21:25;;;;;;;4.65;3.28;;;1.60;94.00;;;;;;5076129;28;20064;-77
2021/11/22 01:23:51;;;;;;;3.65;2.70;;;1.60;94.10;;;;;;5075557;28;20031;-77
2021/11/22 01:26:17;;;;;;;5.65;3.30;;;1.60;94.20;;;;;;5075472;28;20477;-76
2021/11/22 01:28:43;;;;;;;4.93;3.47;;;1.70;94.30;;;;;;5075674;28;20496;-76
2021/11/22 01:31:09;;;;;;;3.78;3.33;;;1.70;94.20;;;;;;5075468;28;20087;-77
2021/11/22 01:33:35;;;;;;;4.93;3.33;;;1.70;94.20;;;;;;5075170;28;20513;-77
2021/11/22 01:36:01;;;;;;;4.07;2.70;;;1.70;94.20;;;;;;5074001;28;20524;-78
2021/11/22 01:38:27;;;;;;;3.90;2.75;;;1.70;94.20;;;;;;5074216;28;20025;-76
2021/11/22 01:40:53;;;;;;;3.85;2.50;;;1.70;94.20;;;;;;5075493;28;20024;-76
2021/11/22 01:43:19;;;;;;;5.10;2.60;;;1.70;94.10;;;;;;5075067;28;20434;-78
2021/11/22 01:45:48;;;;;;;3.65;2.85;;;1.70;94.20;;;;;;5075278;28;20101;-77
2021/11/22 01:48:16;;;;;;;4.25;2.65;;;1.70;94.10;;;;;;5074897;28;20033;-77
2021/11/22 01:50:42;;;;;;;;;;;1.70;94.00;;;;;;5075398;28;20139;-78
2021/11/22 01:53:09;;;;;;;3.72;2.25;;;1.80;94.10;;;;;;5074969;28;20043;-78
2021/11/22 01:55:35;;;;;;;3.33;2.57;;;1.70;94.10;;;;;;5073811;28;20111;-75
2021/11/22 01:58:02;;;;;;;4.75;3.00;;;1.70;94.00;;;;;;5074837;28;20016;-78
2021/11/22 02:00:34;;;;;;;5.68;3.63;;;1.70;93.90;;;;;;5074940;28;20100;-76
2021/11/22 02:03:01;;;;;;;3.72;2.78;;;1.70;94.00;;;;;;5075245;28;20047;-76
2021/11/22 02:05:27;;;;;;;;;;;1.70;94.00;;;;;;5075360;28;20095;-77
2021/11/22 02:07:53;;;;;;;3.33;2.30;;;1.70;94.10;;;;;;5073407;28;19912;-76
2021/11/22 02:10:20;;;;;;;4.53;2.72;;;1.70;94.10;;;;;;5075345;28;20081;-77
2021/11/22 02:12:47;;;;;;;4.65;2.83;;;1.70;94.10;;;;;;5078091;28;20035;-76
2021/11/22 02:15:15;;;;;;;4.05;2.60;;;1.70;94.20;;;;;;5077929;28;20221;-76
2021/11/22 02:17:44;;;;;;;4.82;3.40;;;1.70;94.40;;;;;;5073450;28;20113;-77
2021/11/22 02:20:13;;;;;;;7.85;3.00;;;1.70;94.50;;;;;;5074034;28;20052;-77
2021/11/22 02:22:43;;;;;;;4.85;2.67;;;1.60;94.60;;;;;;5074608;28;20046;-76
2021/11/22 02:25:11;;;;;;;3.78;2.63;;;1.60;94.60;;;;;;5074530;28;20024;-77
2021/11/22 02:27:38;;;;;;;3.45;2.08;;;1.60;94.60;;;;;;5074531;28;20024;-77
2021/11/22 02:30:07;;;;;;;2.45;1.50;;;1.60;94.60;;;;;;5073982;28;20948;-77
2021/11/22 02:32:35;;;;;;;5.95;3.35;;;1.60;94.70;;;;;;5074288;28;20033;-77
2021/11/22 02:35:01;;;;;;;3.47;2.47;;;1.60;94.70;;;;;;5074301;28;20028;-76
2021/11/22 02:37:27;;;;;;;3.85;2.92;;;1.50;94.80;;;;;;5074675;28;20020;-76
2021/11/22 02:39:53;;;;;;;3.65;1.90;;;1.60;94.90;;;;;;5074133;28;20480;-76
2021/11/22 02:42:24;;;;;;;4.13;2.65;;;1.60;94.90;;;;;;5074234;28;20360;-77
2021/11/22 02:44:51;;;;;;;3.67;2.17;;;1.70;94.80;;;;;;5073917;28;20044;-77
2021/11/22 02:47:17;;;;;;;2.70;2.42;;;1.70;94.70;;;;;;5073140;28;20111;-75
2021/11/22 02:49:43;;;;;;;3.88;2.45;;;1.70;94.70;;;;;;5074384;28;20105;-76
2021/11/22 02:52:09;;;;;;;6.45;2.42;;;1.70;94.60;;;;;;5074060;28;20020;-77
2021/11/22 02:54:35;;;;;;;3.35;2.17;;;1.70;94.60;;;;;;5073952;28;20512;-78
2021/11/22 02:57:01;;;;;;;3.40;1.95;;;1.70;94.60;;;;;;5073812;28;20024;-77
2021/11/22 02:59:27;;;;;;;4.13;2.53;;;1.70;94.40;;;;;;5073885;28;20028;-78
2021/11/22 03:01:53;;;;;;;3.33;1.92;;;1.70;94.50;;;;;;5073481;28;20021;-77
2021/11/22 03:04:29;;;;;;;2.85;2.10;;;1.60;94.40;;;;;;5073647;28;20512;-79
2021/11/22 03:06:55;;;;;;;2.45;1.80;;;1.50;94.60;;;;;;5073751;28;20516;-78
2021/11/22 03:09:21;;;;;;;3.30;2.17;;;1.50;94.70;;;;;;5072078;28;20040;-78
2021/11/22 03:11:47;;;;;;;2.67;1.92;;;1.50;94.70;;;;;;5071972;28;20020;-78
2021/11/22 03:14:12;;;;;;;2.83;1.92;;;1.50;94.80;;;;;;5073425;28;20032;-78
2021/11/22 03:16:39;;;;;;;2.35;1.88;;;1.40;94.70;;;;;;5073712;28;20024;-78
2021/11/22 03:19:04;;;;;;;2.95;2.22;;;1.40;94.80;;;;;;5073247;28;20074;-77
2021/11/22 03:21:30;;;;;;;3.70;2.30;;;1.50;94.60;;;;;;5073396;28;20048;-78
2021/11/22 03:23:56;;;;;;;2.50;1.65;;;1.50;94.50;;;;;;5073301;28;20066;-77
2021/11/22 03:26:22;;;;;;;2.83;2.10;;;1.40;94.40;;;;;;5073050;28;20048;-77
2021/11/22 03:28:48;;;;;;;2.75;1.75;;;1.40;94.50;;;;;;5073134;28;20112;-79
2021/11/22 03:31:14;;;;;;;4.00;2.38;;;1.30;94.70;;;;;;5073385;28;20052;-77
2021/11/22 03:33:41;;;;;;;4.95;2.00;;;1.10;94.50;;;;;;5072141;28;20024;-77
2021/11/22 03:36:08;;;;;;;3.03;2.08;;;1.00;94.80;;;;;;5073168;28;20504;-77
2021/11/22 03:38:34;;;;;;;3.40;2.50;;;0.90;95.20;;;;;;5073060;28;20086;-78
2021/11/22 03:41:02;;;;;;;3.72;2.47;;;0.90;95.40;;;;;;5072913;28;20061;-78
2021/11/22 03:43:32;;;;;;;5.47;2.15;;;0.80;95.50;;;;;;5073097;28;20046;-76
2021/11/22 03:45:58;;;;;;;3.00;1.98;;;0.80;95.50;;;;;;5072699;28;20024;-79
2021/11/22 03:48:25;;;;;;;3.47;1.67;;;0.80;95.40;;;;;;5054885;28;20040;-77
2021/11/22 03:50:50;;;;;;;5.72;2.22;;;0.80;95.40;;;;;;5072740;28;20028;-78
2021/11/22 03:53:17;;;;;;;3.15;2.25;;;0.80;95.60;;;;;;5072850;28;20092;-77
2021/11/22 03:55:43;;;;;;;3.67;1.70;;;0.80;95.40;;;;;;5072568;28;20230;-76
2021/11/22 03:58:09;;;;;;;4.25;2.45;;;0.80;95.00;;;;;;5072743;28;20472;-77
2021/11/22 04:00:34;;;;;;;4.90;2.20;;;0.90;94.90;;;;;;5072924;28;20146;-76
2021/11/22 04:03:00;;;;;;;4.20;2.45;;;0.90;94.70;;;;;;5072538;28;20070;-75
2021/11/22 04:05:26;;;;;;;2.90;2.55;;;1.00;94.50;;;;;;5072663;28;20024;-76
2021/11/22 04:07:52;;;;;;;2.67;1.92;;;1.00;94.40;;;;;;5071337;28;20035;-78
2021/11/22 04:10:18;;;;;;;4.00;2.08;;;1.00;94.20;;;;;;5072912;28;20024;-77
2021/11/22 04:12:44;;;;;;;3.50;2.22;;;1.00;94.10;;;;;;5072640;28;20096;-76
2021/11/22 04:15:10;;;;;;;3.28;2.03;;;1.00;93.90;;;;;;5072500;28;20052;-75
2021/11/22 04:17:35;;;;;;;4.53;2.63;;;1.00;93.80;;;;;;5072536;28;20462;-78
2021/11/22 04:20:03;;;;;;;3.30;2.50;;;1.00;93.70;;;;;;5072596;28;20023;-77
2021/11/22 04:22:29;;;;;;;4.25;2.47;;;1.00;93.50;;;;;;5072522;28;20107;-77
2021/11/22 04:24:55;;;;;;;5.47;2.30;;;1.00;93.50;;;;;;5072423;28;20065;-77
2021/11/22 04:27:20;;;;;;;2.97;2.53;;;1.00;93.40;;;;;;5072835;28;20096;-77
2021/11/22 04:29:46;;;;;;;2.92;2.38;;;1.00;93.00;;;;;;5072727;28;20028;-77
2021/11/22 04:32:12;;;;;;;2.97;2.28;;;1.00;93.10;;;;;;5072681;28;20355;-78
2021/11/22 04:34:38;;;;;;;3.60;2.67;;;1.00;93.00;;;;;;5072650;28;20039;-76
2021/11/22 04:37:04;;;;;;;6.15;2.83;;;1.00;93.00;;;;;;5072377;28;20020;-77
2021/11/22 04:39:30;;;;;;;4.93;2.95;;;1.00;93.00;;;;;;5071416;28;20047;-78
2021/11/22 04:41:56;;;;;;;3.42;2.47;;;1.10;93.10;;;;;;5072283;28;20025;-77
2021/11/22 04:44:22;;;;;;;4.60;3.10;;;1.10;93.10;;;;;;5074035;28;20053;-77
2021/11/22 04:46:48;;;;;;;6.47;3.05;;;1.00;93.20;;;;;;5075984;28;20037;-76
2021/11/22 04:49:14;;;;;;;3.22;2.22;;;1.10;93.20;;;;;;5076264;28;20037;-79
2021/11/22 04:51:40;;;;;;;3.95;2.25;;;1.00;93.10;;;;;;5076366;28;20049;-76
2021/11/22 04:54:05;;;;;;;3.20;2.63;;;1.00;92.50;;;;;;5075953;28;20031;-77
2021/11/22 04:56:31;;;;;;;4.78;2.03;;;1.00;92.40;;;;;;5075954;28;20477;-77
2021/11/22 04:58:57;;;;;;;4.25;2.13;;;0.90;92.20;;;;;;5074363;28;20025;-78
2021/11/22 05:01:23;;;;;;;3.97;2.10;;;0.90;92.20;;;;;;5076167;28;20021;-78
2021/11/22 05:03:50;;;;;;;4.07;2.97;;;0.90;92.00;;;;;;5075370;28;20396;-78
2021/11/22 05:06:17;;;;;;;4.18;2.42;;;0.90;92.00;;;;;;5075737;28;20471;-78
2021/11/22 05:08:42;;;;;;;3.03;1.92;;;0.90;91.80;;;;;;5075418;28;20041;-78
2021/11/22 05:11:08;;;;;;;2.30;1.35;;;0.90;91.30;;;;;;5075601;28;20021;-78
2021/11/22 05:13:34;;;;;;;2.38;1.75;;;0.90;90.90;;;;;;5074367;28;20462;-79
2021/11/22 05:16:00;;;;;;;2.65;2.05;;;0.80;91.00;;;;;;5070035;28;20102;-78
2021/11/22 05:18:25;;;;;;;2.50;1.48;;;0.80;90.40;;;;;;5063753;28;20397;-78
2021/11/22 05:20:51;;;;;;;1.75;1.65;;;0.70;90.40;;;;;;5075343;28;20036;-79
2021/11/22 05:23:23;;;;;;;1.85;1.52;;;0.80;90.70;;;;;;5075122;28;20028;-80
2021/11/22 05:25:49;;;;;;;2.00;1.65;;;0.80;90.80;;;;;;5075410;28;20031;-78
2021/11/22 05:28:15;;;;;;;2.13;1.88;;;0.80;90.90;;;;;;5075419;28;20029;-78
2021/11/22 05:30:41;;;;;;;3.28;1.73;;;0.80;90.90;;;;;;5074518;28;20025;-78
2021/11/22 05:33:07;;;;;;;2.28;1.98;;;0.80;90.50;;;;;;5074994;28;20028;-78
2021/11/22 05:35:34;;;;;;;1.42;1.23;;;0.80;90.10;;;;;;5075127;28;20039;-78
2021/11/22 05:38:00;;;;;;;1.90;1.52;;;0.80;90.20;;;;;;5075378;28;20024;-78
2021/11/22 05:40:26;;;;;;;2.55;1.55;;;0.80;90.10;;;;;;5075382;28;20453;-78
2021/11/22 05:42:52;;;;;;;1.92;1.60;;;0.80;89.80;;;;;;5074752;28;20470;-77
2021/11/22 05:45:19;;;;;;;1.58;1.48;;;0.80;90.00;;;;;;5074683;28;20037;-77
2021/11/22 05:47:45;;;;;;;2.72;1.38;;;0.80;90.10;;;;;;5074973;28;20087;-78
2021/11/22 05:50:12;;;;;;;2.30;1.33;;;0.80;89.20;;;;;;5075972;28;20108;-78
2021/11/22 05:52:39;;;;;;;3.23;1.50;;;0.80;88.90;;;;;;5073919;28;20024;-78
2021/11/22 05:55:11;;;;;;;1.20;1.10;;;0.80;89.20;;;;;;5072586;28;20028;-78
2021/11/22 05:57:36;;;;;;;2.10;1.38;;;0.70;89.00;;;;;;5074990;28;20363;-79
2021/11/22 06:00:04;;;;;;;1.30;1.05;;;0.80;89.20;;;;;;5076018;28;20107;-79
2021/11/22 06:02:30;;;;;;;1.80;1.65;;;0.70;89.20;;;;;;5074860;28;20428;-79
2021/11/22 06:04:56;;;;;;;1.20;1.08;;;0.70;89.20;;;;;;5074065;28;20020;-79
2021/11/22 06:07:22;;;;;;;1.40;1.30;;;0.70;88.80;;;;;;5072817;28;20036;-78
2021/11/22 06:09:47;;;;;;;2.53;1.52;;;0.60;88.80;;;;;;5074477;28;20101;-78
2021/11/22 06:12:13;;;;;;;2.05;1.63;;;0.60;89.00;;;;;;5074352;28;20036;-77
2021/11/22 06:14:40;;;;;;;2.72;1.48;;;0.60;89.10;;;;;;5074629;28;20379;-77
2021/11/22 06:17:06;;;;;;;2.92;1.52;;;0.60;89.30;;;;;;5074234;28;20017;-78
2021/11/22 06:19:32;;;;;;;2.95;1.20;;;0.50;89.20;;;;;;5073041;28;20025;-78
2021/11/22 06:21:58;;;;;;;1.85;1.40;;;0.40;89.90;;;;;;5074575;28;20031;-77
2021/11/22 06:24:24;;;;;;;2.53;1.50;;;0.40;90.00;;;;;;5074365;28;20039;-77
2021/11/22 06:26:53;;;;;;;2.58;1.52;;;0.40;90.20;;;;;;5074225;28;20039;-77
2021/11/22 06:29:19;;;;;;;1.90;1.60;;;0.40;90.10;;;;;;5073859;28;20033;-78
2021/11/22 06:31:45;;;;;;;2.97;1.50;;;0.50;89.10;;;;;;5073983;28;20507;-77
2021/11/22 06:34:11;;;;;;;1.70;1.20;;;0.50;88.90;;;;;;5075399;28;20025;-79
2021/11/22 06:36:37;;;;;;;1.63;1.10;;;0.50;89.10;;;;;;5073690;28;20394;-77
2021/11/22 06:39:03;;;;;;;1.48;1.20;;;0.50;88.20;;;;;;5073958;28;20043;-78
2021/11/22 06:41:29;;;;;;;1.63;1.05;;;0.50;85.90;;;;;;5073914;28;20016;-80
2021/11/22 06:43:55;;;;;;;1.15;0.80;;;0.50;85.80;;;;;;5073320;28;20048;-79
2021/11/22 06:46:20;;;;;;;1.38;0.85;;;0.50;85.80;;;;;;5074171;28;20117;-78
2021/11/22 06:48:46;;;;;;;1.27;0.98;;;0.50;84.50;;;;;;5075243;28;20047;-79
2021/11/22 06:51:12;;;;;;;2.53;1.17;;;0.40;82.90;;;;;;5074318;28;20036;-79
2021/11/22 06:53:38;;;;;;;2.53;1.23;;;0.30;82.50;;;;;;5073679;28;20036;-78
2021/11/22 06:56:04;;;;;;;3.40;1.23;;;0.30;81.30;;;;;;5073046;28;20109;-79
2021/11/22 06:58:30;;;;;;;1.50;1.25;;;0.20;80.80;;;;;;5073641;28;20020;-77
2021/11/22 07:00:56;;;;;;;4.78;1.70;;;0.10;79.40;;;;;;5071857;28;20388;-76
2021/11/22 07:03:24;;;;;;;1.08;0.90;;;0.00;79.10;;;;;;5072072;28;20074;-77
2021/11/22 07:05:50;;;;;;;2.47;1.23;;;-0.10;79.00;;;;;;5073340;28;20013;-78
2021/11/22 07:08:16;;;;;;;2.95;1.25;;;-0.20;78.70;;;;;;5070844;28;20025;-79
2021/11/22 07:10:42;;;;;;;1.90;1.33;;;-0.20;77.90;;;;;;5068411;28;20032;-80
2021/11/22 07:13:08;;;;;;;5.68;1.70;;;-0.30;78.90;;;;;;5073403;28;20025;-83
2021/11/22 07:15:36;;;;;;;2.47;0.93;;;-0.30;77.70;;;;;;5072693;28;20020;-78
2021/11/22 07:18:04;;;;;;;4.05;1.20;;;-0.30;77.40;;;;;;5077825;28;20032;-79
2021/11/22 07:20:31;;;;;;;1.95;1.20;;;-0.30;77.60;;;;;;5071406;28;20028;-77
2021/11/22 07:22:57;;;;;;;1.92;1.02;;;-0.30;78.00;;;;;;5073025;28;20034;-79
2021/11/22 07:25:24;;;;;;;4.35;2.08;;;-0.30;77.90;;;;;;5072851;28;20025;-78
2021/11/22 07:27:53;;;;;;;2.88;1.70;;;-0.40;78.00;;;;;;5071696;28;20390;-79
2021/11/22 07:30:21;;;;;;;2.03;0.88;;;-0.30;78.70;;;;;;5072701;28;20021;-77
2021/11/22 07:32:54;;;;;;;2.25;1.30;;;-0.20;77.60;;;;;;5073233;28;20033;-80
2021/11/22 07:35:23;;;;;;;2.75;1.70;;;-0.20;77.40;;;;;;5073507;28;20472;-79
2021/11/22 07:37:53;;;;;;;1.50;1.15;;;-0.20;77.60;;;;;;5072402;28;20021;-79
2021/11/22 07:40:22;;;;;;;5.93;1.67;;;-0.20;76.90;;;;;;5073110;28;20385;-79
2021/11/22 07:42:50;;;;;;;2.53;1.77;;;-0.20;77.60;;;;;;5073012;28;20016;-79
2021/11/22 07:45:16;;;;;;;4.18;1.67;;;-0.10;77.90;;;;;;5072809;28;20040;-77
2021/11/22 07:47:42;;;;;;;3.55;1.85;;;0.00;77.40;;;;;;5072874;28;20077;-80
2021/11/22 07:50:08;;;;;;;16.70;1.55;;;-0.10;77.10;;;;;;5072253;28;20380;-76
2021/11/22 07:52:34;;;;;;;1.70;0.98;;;0.00;77.80;;;;;;5071434;28;20114;-78
2021/11/22 07:54:59;;;;;;;1.83;1.35;;;0.00;77.30;;;;;;5072754;28;20477;-79
2021/11/22 07:57:27;;;;;;;2.28;1.60;;;0.00;76.30;;;;;;5072713;28;20367;-78
2021/11/22 07:59:53;;;;;;;2.25;1.40;;;-0.10;76.60;;;;;;5069986;28;20036;-78
2021/11/22 08:02:19;;;;;;;2.92;1.45;;;-0.10;76.90;;;;;;5052748;28;20021;-77
2021/11/22 08:04:45;;;;;;;1.70;1.42;;;0.00;77.30;;;;;;5052836;28;20021;-78
2021/11/22 08:07:19;;;;;;;2.63;1.67;;;0.20;77.40;;;;;;5052653;28;20025;-78
2021/11/22 08:09:57;;;;;;;1.77;1.10;;;0.20;75.80;;;;;;5052529;28;20025;-78
2021/11/22 08:12:27;;;;;;;3.45;1.70;;;0.10;76.00;;;;;;5052701;28;20071;-78
2021/11/22 08:15:02;;;;;;;2.25;1.55;;;0.10;76.80;;;;;;5052580;28;20116;-78
2021/11/22 08:17:29;;;;;;;4.00;1.55;;;0.00;77.00;;;;;;5052634;28;20478;-78
2021/11/22 08:19:56;;;;;;;;;;;0.00;77.10;;;;;;5055971;28;20052;-79
2021/11/22 08:22:24;;;;;;;2.80;1.63;;;0.00;77.80;;;;;;5056606;28;19974;-78
2021/11/22 08:24:53;;;;;;;;;;;0.00;77.90;;;;;;5057211;28;20021;-79
2021/11/22 08:27:25;;;;;;;2.28;1.10;;;0.10;77.70;;;;;;5056712;28;19958;-79
2021/11/22 08:29:50;;;;;;;5.65;1.40;;;0.20;77.30;;;;;;5056552;28;20386;-78
2021/11/22 08:32:18;;;;;;;3.58;1.95;;;0.20;76.70;;;;;;5056578;28;20017;-81
2021/11/22 08:34:44;;;;;;;2.08;1.38;;;0.20;76.60;;;;;;5056573;28;20096;-77
2021/11/22 08:37:10;;;;;;;4.97;1.48;;;0.20;75.70;;;;;;5056168;28;20063;-79
2021/11/22 08:39:37;;;;;;;2.22;1.83;;;0.10;76.10;;;;;;5055918;28;20029;-78
2021/11/22 08:42:04;;;;;;;3.03;1.60;;;0.20;75.60;;;;;;5056216;28;20025;-78
2021/11/22 08:44:31;;;;;;;1.38;1.25;;;0.20;75.80;;;;;;5056096;28;20056;-78
2021/11/22 08:46:57;;;;;;;4.22;2.03;;;0.30;75.20;;;;;;5065599;28;20028;-78
2021/11/22 08:49:23;;;;;;;2.10;1.58;;;0.40;75.00;;;;;;5075407;28;20094;-77
2021/11/22 08:51:50;;;;;;;5.80;1.50;;;0.40;75.10;;;;;;5078447;28;20188;-79
2021/11/22 08:54:15;;;;;;;3.55;1.58;;;0.40;75.40;;;;;;5078821;28;20410;-78
2021/11/22 08:56:42;;;;;;;3.55;1.95;;;0.40;75.10;;;;;;5078160;28;20135;-76
2021/11/22 08:59:08;;;;;;;2.40;1.60;;;0.40;74.90;;;;;;5075983;28;20430;-77
2021/11/22 09:01:35;;;;;;;1.92;1.35;;;0.40;75.30;;;;;;5075843;28;20112;-79
2021/11/22 09:04:00;;;;;;;2.95;1.73;;;0.30;74.90;;;;;;5075919;28;20374;-78
2021/11/22 09:06:26;;;;;;;2.88;1.88;;;0.30;74.20;;;;;;5075661;28;20025;-80
2021/11/22 09:08:52;;;;;;;3.00;1.60;;;0.30;74.60;;;;;;5075611;28;20037;-78
2021/11/22 09:11:18;;;;;;;2.47;1.92;;;0.40;74.60;;;;;;5074269;28;20539;-78
2021/11/22 09:13:45;;;;;;;2.72;1.58;;;0.40;73.60;;;;;;5075383;28;20025;-79
2021/11/22 09:16:11;;;;;;;;;;;0.50;74.50;;;;;;5075865;28;20104;-77
2021/11/22 09:18:38;;;;;;;1.90;1.27;;;0.70;74.20;;;;;;5075646;28;19958;-80
2021/11/22 09:21:04;;;;;;;3.53;1.08;;;0.70;71.40;;;;;;5075425;28;20029;-80
2021/11/22 09:23:31;;;;;;;2.13;1.35;;;0.80;70.70;;;;;;5075149;28;20044;-79
2021/11/22 09:25:59;;;;;;;2.25;1.55;;;0.90;69.80;;;;;;5075148;28;20024;-79
2021/11/22 09:28:25;;;;;;;2.38;1.20;;;0.90;69.80;;;;;;5075330;28;20127;-79
2021/11/22 09:30:51;;;;;;;2.33;2.13;;;0.90;69.30;;;;;;5074103;28;20051;-80
2021/11/22 09:33:18;;;;;;;9.77;8.40;;;0.90;68.90;;;;;;5074782;28;20024;-79
2021/11/22 09:35:43;;;;;;;5.30;1.10;;;0.90;68.30;;;;;;5075042;28;20469;-80
2021/11/22 09:38:09;;;;;;;1.75;1.23;;;0.90;67.80;;;;;;5074884;28;20443;-79
2021/11/22 09:40:36;;;;;;;3.13;1.30;;;0.80;67.10;;;;;;5074922;28;20456;-78
2021/11/22 09:43:03;;;;;;;1.83;1.38;;;0.90;67.70;;;;;;5074752;28;20090;-79
2021/11/22 09:45:29;;;;;;;12.27;11.20;;;0.80;67.70;;;;;;5075100;28;20024;-78
2021/11/22 09:47:59;;;;;;;3.00;2.00;;;0.80;67.10;;;;;;5074773;28;20107;-79
2021/11/22 09:50:27;;;;;;;2.90;2.70;;;1.10;66.70;;;;;;5074926;28;20504;-78
2021/11/22 09:52:53;;;;;;;5.10;4.05;;;1.60;66.10;;;;;;5074795;28;20086;-79
2021/11/22 09:55:19;;;;;;;6.18;1.60;;;2.30;64.40;;;;;;5074738;28;20024;-79
2021/11/22 09:57:44;;;;;;;1.08;0.82;;;2.70;61.20;;;;;;5074873;28;20074;-80
2021/11/22 10:00:12;;;;;;;3.65;2.58;;;2.80;60.00;;;;;;5074908;28;20028;-80
2021/11/22 10:02:46;;;;;;;7.15;1.83;;;2.40;59.70;;;;;;5074446;28;20024;-78
2021/11/22 10:05:42;;;;;;;1.88;1.52;;;1.90;60.40;;;;;;5074477;28;20071;-79
2021/11/22 10:08:16;;;;;;;3.03;2.13;;;1.90;62.20;;;;;;5061476;28;20098;-78
2021/11/22 10:10:45;;;;;;;2.63;1.35;;;1.70;62.10;;;;;;5074442;28;20063;-80
2021/11/22 10:13:23;;;;;;;2.70;1.83;;;2.00;63.00;;;;;;5074296;28;20128;-80
2021/11/22 10:15:49;;;;;;;;;;;1.90;62.60;;;;;;5075472;28;20024;-80
2021/11/22 10:18:24;;;;;;;2.78;1.83;;;1.60;62.80;;;;;;5074358;28;19905;-78
2021/11/22 10:20:50;;;;;;;2.28;2.00;;;1.30;63.00;;;;;;5074322;28;20500;-80
2021/11/22 10:23:27;;;;;;;2.73;1.57;;;1.10;63.50;;;;;;5074246;28;20023;-79
2021/11/22 10:25:55;;;;;;;4.68;1.40;;;0.90;64.00;;;;;;5074381;28;20419;-80
2021/11/22 10:28:29;;;;;;;3.67;1.70;;;0.70;63.70;;;;;;5074050;28;20044;-80
2021/11/22 10:31:01;;;;;;;3.17;1.08;;;0.60;64.50;;;;;;5074738;28;20032;-79
2021/11/22 10:33:33;;;;;;;1.80;1.17;;;0.50;64.60;;;;;;5073260;28;20391;-79
2021/11/22 10:36:02;;;;;;;1.73;1.02;;;0.30;64.20;;;;;;5076868;28;20067;-80
2021/11/22 10:38:34;;;;;;;1.45;0.95;;;0.20;64.00;;;;;;5078409;28;20021;-78
2021/11/22 10:41:13;;;;;;;1.45;1.10;;;0.00;64.00;;;;;;5077549;28;20025;-79
2021/11/22 10:43:51;;;;;;;2.08;1.42;;;-0.20;64.90;;;;;;5072768;28;20072;-79
2021/11/22 10:46:26;;;;;;;2.67;1.13;;;-0.20;65.50;;;;;;5073806;28;20489;-80
2021/11/22 10:48:53;;;;;;;2.88;1.25;;;-0.20;65.40;;;;;;5073567;28;20028;-79
2021/11/22 10:51:27;;;;;;;3.05;1.45;;;-0.20;66.00;;;;;;5074125;28;20024;-80
2021/11/22 10:54:04;;;;;;;2.03;1.90;;;-0.20;66.40;;;;;;5075488;28;20116;-78
2021/11/22 10:56:43;;;;;;;4.97;1.13;;;-0.20;66.30;;;;;;5073575;28;20067;-79
2021/11/22 10:59:14;;;;;;;4.28;1.77;;;-0.20;66.20;;;;;;5073576;28;20024;-79
2021/11/22 11:01:45;;;;;;;1.85;1.10;;;-0.20;66.80;;;;;;5073474;28;20016;-78
2021/11/22 11:04:17;;;;;;;1.58;1.10;;;-0.10;67.10;;;;;;5071709;28;20562;-79
2021/11/22 11:07:05;;;;;;;2.45;1.45;;;-0.10;66.00;;;;;;5073069;28;20477;-78
2021/11/22 11:09:37;;;;;;;5.25;1.77;;;-0.10;66.30;;;;;;5073152;28;20059;-79
2021/11/22 11:12:06;;;;;;;1.75;1.10;;;0.00;66.70;;;;;;5073208;28;20028;-80
2021/11/22 11:14:33;;;;;;;5.95;1.05;;;0.00;66.90;;;;;;5073731;28;20114;-79
2021/11/22 11:17:22;;;;;;;2.65;1.50;;;0.00;66.10;;;;;;5073267;28;20020;-78
2021/11/22 11:19:54;;;;;;;7.53;1.40;;;0.00;66.50;;;;;;5065331;28;20028;-78
2021/11/22 11:22:20;;;;;;;1.17;0.95;;;0.00;65.90;;;;;;5072932;28;20021;-79
2021/11/22 11:24:46;;;;;;;2.53;1.38;;;0.00;66.30;;;;;;5073105;28;20059;-78
2021/11/22 11:27:13;;;;;;;1.63;1.52;;;0.00;66.70;;;;;;5073038;28;20036;-80
2021/11/22 11:29:39;;;;;;;2.97;1.70;;;0.10;66.90;;;;;;5072834;28;20041;-79
2021/11/22 11:32:05;;;;;;;6.47;1.50;;;0.10;66.70;;;;;;5072772;28;20039;-78
2021/11/22 11:34:36;;;;;;;4.32;2.45;;;0.20;66.30;;;;;;5073306;28;20028;-81
2021/11/22 11:37:34;;;;;;;2.22;1.23;;;0.20;66.20;;;;;;5072991;28;20365;-81
2021/11/22 11:40:18;;;;;;;3.05;1.65;;;0.20;66.10;;;;;;5072896;28;20021;-78
2021/11/22 11:43:10;;;;;;;3.90;1.48;;;0.10;64.30;;;;;;5072647;28;20500;-80
2021/11/22 11:45:54;;;;;;;1.95;1.13;;;0.10;64.40;;;;;;5072941;28;20099;-80
2021/11/22 11:48:35;;;;;;;3.80;1.30;;;0.10;64.80;;;;;;5072767;28;20119;-79
2021/11/22 11:51:11;;;;;;;2.45;1.50;;;0.10;65.30;;;;;;5072543;28;20024;-79
2021/11/22 11:53:58;;;;;;;4.63;2.77;;;0.20;65.30;;;;;;5071084;28;20120;-78
2021/11/22 11:56:33;;;;;;;4.25;1.23;;;0.20;65.40;;;;;;5072900;28;20052;-79
2021/11/22 11:59:24;;;;;;;5.38;1.70;;;0.10;64.80;;;;;;5072902;28;20413;-79
2021/11/22 12:02:10;;;;;;;5.03;1.67;;;0.00;64.90;;;;;;5059241;28;20032;-80
2021/11/22 12:04:49;;;;;;;1.83;0.80;;;0.00;64.80;;;;;;5071934;28;20135;-80
2021/11/22 12:07:45;;;;;;;1.48;0.93;;;-0.20;64.60;;;;;;5072627;28;20021;-78
2021/11/22 12:10:25;;;;;;;5.60;1.50;;;-0.30;65.40;;;;;;5072692;28;20067;-78
2021/11/22 12:13:07;;;;;;;2.53;1.48;;;-0.30;65.80;;;;;;5072619;28;20040;-79
2021/11/22 12:15:44;;;;;;;5.03;2.05;;;-0.30;66.30;;;;;;5072380;28;20103;-79
2021/11/22 12:18:31;;;;;;;2.33;1.27;;;-0.40;66.80;;;;;;5072308;28;20025;-77
2021/11/22 12:21:23;;;;;;;3.17;1.63;;;-0.30;67.20;;;;;;5072381;28;20083;-79
2021/11/22 12:23:54;;;;;;;2.95;1.20;;;-0.20;66.60;;;;;;5072592;28;20273;-78
2021/11/22 12:26:37;;;;;;;5.18;2.03;;;-0.30;65.20;;;;;;5072070;28;20028;-81
2021/11/22 12:29:04;;;;;;;2.72;1.10;;;-0.40;65.70;;;;;;5072551;28;20173;-81
2021/11/22 12:31:33;;;;;;;2.58;1.17;;;-0.40;65.90;;;;;;5072354;28;20013;-79
2021/11/22 12:34:10;;;;;;;1.70;0.93;;;-0.40;65.70;;;;;;5072224;28;20052;-79
2021/11/22 12:36:48;;;;;;;1.08;0.70;;;-0.50;65.80;;;;;;5072178;28;20107;-79
2021/11/22 12:39:19;;;;;;;4.78;2.20;;;-0.50;65.30;;;;;;5072490;28;20052;-79
2021/11/22 12:41:46;;;;;;;1.95;0.98;;;-0.50;65.30;;;;;;5073122;28;20012;-80
2021/11/22 12:44:15;;;;;;;2.33;1.00;;;-0.50;64.70;;;;;;5071693;28;20126;-80
2021/11/22 12:46:46;;;;;;;1.33;0.93;;;-0.60;64.50;;;;;;5072309;28;20017;-80
2021/11/22 12:49:31;;;;;;;3.15;1.20;;;-0.60;64.90;;;;;;5072144;28;20036;-79
2021/11/22 12:52:24;;;;;;;1.95;1.23;;;-0.70;64.20;;;;;;5071769;28;20359;-80
2021/11/22 12:54:56;;;;;;;1.73;1.02;;;-0.70;64.30;;;;;;5052741;28;20088;-78
2021/11/22 12:57:31;;;;;;;5.75;0.95;;;-0.80;64.50;;;;;;5053021;28;20110;-79
2021/11/22 13:00:20;;;;;;;1.42;1.10;;;-0.70;65.00;;;;;;5053466;28;20025;-77
2021/11/22 13:02:48;;;;;;;2.97;1.40;;;-0.80;64.70;;;;;;5052797;28;20032;-78
2021/11/22 13:05:44;;;;;;;3.15;1.55;;;-0.80;64.80;;;;;;5052538;28;20033;-79